Bear Valley Ski Patrol Weather




            Date and Time  Surv  Temp  Temp  Surv  Precip   Total Inter Total  Batt Koala Koala Koala Koala Koala Koala Bear T Bear T  Bear  Bear  Bear
                           Temp 24 hr 24 hr    RH    Inch   24 hr  Snow  Snow  volt  Temp    RH    WS    WD    WS    WS   Temp     RH    WS    WD    WS
                          Deg F   Min   Max     %    Hour  Precip Stake Stake  Surv Deg F     %   mph  quad   Max 24Max  Deg F      %   mph  quad   Max
-------------------------------------------------------------------------------------------------------------------------------------------------------
    "2021-10-26 08:00:00"    24               100    0.00           152    16  13.8    23    99     0     N     0           22    100     0     S     0
    "2021-10-26 09:00:00"    26                85    0.00            18    16  13.8    24   100     0     N     0           23    100     0     S     8
    "2021-10-26 10:00:00"    30                75    0.00            17    15  13.8    25   100     0     N     0           24    100     4     S     7
    "2021-10-26 11:00:00"    34                75    0.00            17    14  13.8    29   100     0     N     0           25    100     3     S     8
    "2021-10-26 12:00:00"    35                73    0.07             0    39  13.8    29   100     0     W     5           27    100     3     S     7
    "2021-10-26 13:00:00"    39                70    0.00             0    11  13.8    31   100     2    SW     6           31    100     2   WSW     8
    "2021-10-26 14:00:00"    36                70    0.00             0    16  13.6    32   100     3     S     8           32    100     2     W     6
    "2021-10-26 15:00:00"    37                79    0.00             0    16  13.6    32   100     3   SSW    10           32    100     3     W     8
    "2021-10-26 16:00:00"    37               100    0.00             0    17  13.5    33   100     6    NW    20           32    100     3    NW    10
    "2021-10-26 17:00:00"    36               100    0.00             0    16  13.5    33   100     6    NW    14           32    100     2     W     9
    "2021-10-26 18:00:00"    35               100    0.00             0    16  13.6    33   100     3   NNW    11           32    100     3    NW    10
    "2021-10-26 19:00:00"    34               100    0.00             0   226  13.6    32   100     7   NNW    14           32    100     5   NNW    12
    "2021-10-26 20:00:00"    34               100    0.00             0    40  13.6    32   100     8   NNW    16           32    100     5   NNW     9
    "2021-10-26 21:00:00"    34               100    0.00             0    17  13.6    33    93     9    NW    15           32    100     8   NNW    13
    "2021-10-26 22:00:00"    34                81    0.00             0    17  13.6    34    70    10   NNW    15           31    100     8   NNW    14
    "2021-10-26 23:00:00"    35                85    0.00             0    17  13.6    36    76     8    NW    14           32    100     6    NW    14
    "2021-10-27 00:00:00"    35                84    0.00             0    17  13.7    35    79     7   NNW    14           34    100     7    NW    13
    "2021-10-27 01:00:00"    37                93    0.00             0    16  13.7    34    92    13   NNW    24           36    100     9   NNW    16
    "2021-10-27 02:00:00"    37               100    0.00             0    16  13.8    36   100    12   NNW    19           36    100     9   NNW    17
    "2021-10-27 03:00:00"    38               100    0.00             0    16  13.8    36   100    11   NNW    18           37    100     9   NNW    14
    "2021-10-27 04:00:00"    39               100    0.00             0   226  13.7    36   100    15   NNW    26           37    100    11     N    16
    "2021-10-27 05:00:00"    38               100    0.00             0   226  13.8    36   100    13   NNW    20           38    100    11   NNW    17
    "2021-10-27 06:00:00"    38               100    0.00             0   226  13.8    37   100    14    NW    28           38    100    11   NNW    17
    "2021-10-27 07:00:00"    39    24    39   100    0.00    0.07     0   226  13.7    37   100    14    NW    24    28     38    100    11   NNW    21
    "2021-10-27 08:00:00"    40               100    0.00             0   226  13.8    38   100    13   NNW    27           38    100    10   NNW    19
    "2021-10-27 09:00:00"    42                95    0.00             0    37  13.8    40    87    14   NNW    26           41    100    12   NNW    20
    "2021-10-27 10:00:00"    44                78    0.00             0    15  13.7    41    88    11    NW    21           42    100    11   NNW    30
    "2021-10-27 11:00:00"    46                69    0.00             0    15  13.6    42    84    11   NNW    22           43     82    10     N    18
    "2021-10-27 12:00:00"    49                69    0.00             0   226  13.6    43    81     7   NNW    13           45     82     6     N    12
    "2021-10-27 13:00:00"    48                60    0.00             0    14  13.4    44    73     9   NNW    17           45     71     8     N    14
    "2021-10-27 14:00:00"    50                60    0.00             0    14  13.4    46    72     9   NNW    20           46     72     9     N    16
    "2021-10-27 15:00:00"    51                60    0.00             0   226  13.3    48    70     6   NNE    13           47     74     6   NNE    12
    "2021-10-27 16:00:00"    49                66    0.00             0   226  13.2    48    71     9     N    20           48     76     8     N    15
    "2021-10-27 17:00:00"    48                65    0.00             0    14  13.2    48    68    11   NNE    20           47     69    10   NNE    17
    "2021-10-27 18:00:00"    46                71    0.00             0    14  13.3    44    77    13     N    29           47     77    12   NNE    22
    "2021-10-27 19:00:00"    44                77    0.00             0   226  13.3    43    82     8   NNE    26           45     85     8     N    19
    "2021-10-27 20:00:00"    43                82    0.00             0    14  13.4    42    79    16    NE    32           43     90    13   NNE    24
    "2021-10-27 21:00:00"    44                77    0.00             0   226  13.4    41    87     6   ENE    25           45     68    11   NNE    23
    "2021-10-27 22:00:00"    43                82    0.00             0    13  13.5    41    86     6    NW    21           47     81     8     N    21
    "2021-10-27 23:00:00"    43                75    0.00             0    37  13.5    42    77     7   NNW    25           44     76     9   NNE    19
    "2021-10-28 00:00:00"    42                75    0.00             0    13  13.5    41    77    10   NNW    25           45     59     8    NW    20
    "2021-10-28 01:00:00"    43                73    0.00             0    13  13.6    42    71    13   NNW    33           47     58    10    NW    21
    "2021-10-28 02:00:00"    42                75    0.00             0    13  13.6    43    61    11     N    26           46     63     8   NNE    17
    "2021-10-28 03:00:00"    41                68    0.00             0    13  13.6    43    52    11     N    26           46     55     5   NNE    13
    "2021-10-28 04:00:00"    41                69    0.00             0    13  13.6    43    53     8   NNW    20           45     51     7   NNW    10
    "2021-10-28 05:00:00"    41                64    0.00             0    13  13.6    44    45     9   NNW    21           47     34     6   NNW    13
    "2021-10-28 06:00:00"    43                53    0.00             0    14  13.6    44    45    12     N    23           49     29     7   NNE    16
    "2021-10-28 07:00:00"    43    40    51    46    0.00    0.00     0    13  13.6    43    51     8     N    24    33     49     40     7    NE    17
    "2021-10-28 08:00:00"    43                44    0.00             0    14  13.6    42    47     4   NNE    12           47     33     7    NE    15
    "2021-10-28 09:00:00"    47                39    0.00             0    13  13.6    45    37     3   ESE     7           52     23     4     E     8
    "2021-10-28 10:00:00"    50                33    0.00             0    13  13.6    47    37     4    SE     8           53     25     4   ESE     9
    "2021-10-28 11:00:00"    54                27    0.00             0   226  13.6    50    32     5    SE    10           54     28     3    SE     7